Time;durP1;ratioP1;P1;durP2;ratioP2;P2;SDS_P1;SDS_P2;PMS_P1;PMS_P2;Temp;Humidity;BMP_temperature;BMP_pressure;BME280_temperature;BME280_humidity;BME280_pressure;Samples;Min_cycle;Max_cycle;Signal;HPM_P1;HPM_P2
2023/06/23 00:01:40;;;;;;;15.40;10.25;;;;;;;17.41;59.98;100849.35;1745081;81;21359;-56
2023/06/23 00:04:50;;;;;;;13.88;9.65;;;;;;;17.36;60.09;100845.80;1760927;81;21355;-56
2023/06/23 00:07:57;;;;;;;15.08;10.48;;;;;;;17.30;60.14;100843.87;1760921;81;21857;-56
2023/06/23 00:11:05;;;;;;;17.17;10.48;;;;;;;17.27;60.32;100843.42;1760903;81;21836;-56
2023/06/23 00:14:13;;;;;;;14.70;10.00;;;;;;;17.25;60.50;100846.95;1760872;81;21256;-55
2023/06/23 00:17:20;;;;;;;15.88;10.18;;;;;;;17.22;60.71;100840.45;1760238;81;21432;-56
2023/06/23 00:20:28;;;;;;;19.42;10.68;;;;;;;17.19;60.78;100835.31;1760883;81;21422;-55
2023/06/23 00:23:35;;;;;;;13.30;10.30;;;;;;;17.17;60.94;100827.77;1760851;81;21335;-56
2023/06/23 00:26:40;;;;;;;14.15;10.35;;;;;;;17.16;61.08;100830.19;1743359;81;21359;-55
2023/06/23 00:29:46;;;;;;;14.03;9.25;;;;;;;17.13;61.21;100820.92;1760967;81;21343;-55
2023/06/23 00:32:52;;;;;;;19.12;11.35;;;;;;;17.10;61.30;100825.50;1760932;81;21355;-56
2023/06/23 00:36:00;;;;;;;15.78;10.28;;;;;;;17.07;61.39;100817.09;1760902;81;21414;-56
2023/06/23 00:39:06;;;;;;;13.68;10.08;;;;;;;17.06;61.45;100822.83;1760886;81;21415;-56
2023/06/23 00:42:13;;;;;;;17.67;10.28;;;;;;;17.02;61.56;100815.99;1760907;81;21845;-56
2023/06/23 00:45:19;;;;;;;15.80;10.15;;;;;;;17.01;61.71;100811.53;1760521;81;21848;-55
2023/06/23 00:48:25;;;;;;;13.05;10.48;;;;;;;16.98;61.82;100810.02;1761017;81;21383;-55
2023/06/23 00:51:32;;;;;;;16.00;10.75;;;;;;;16.99;61.93;100812.26;1760872;81;21372;-55
2023/06/23 00:54:37;;;;;;;13.80;9.80;;;;;;;16.97;62.05;100815.23;1760488;81;21432;-55
2023/06/23 00:57:46;;;;;;;15.40;10.25;;;;;;;16.96;62.13;100816.31;1760675;81;21348;-56
2023/06/23 01:00:51;;;;;;;15.88;10.08;;;;;;;16.94;62.17;100821.70;1760796;81;21363;-55
2023/06/23 01:03:57;;;;;;;11.55;9.35;;;;;;;16.91;62.22;100817.45;1760724;81;21460;-56
2023/06/23 01:07:34;;;;;;;16.87;10.63;;;;;;;16.90;62.27;100817.66;1759930;81;21391;-56
2023/06/23 01:11:03;;;;;;;15.83;9.90;;;;;;;16.87;62.36;100811.98;1760707;81;21355;-55
2023/06/23 01:14:19;;;;;;;21.37;11.18;;;;;;;16.84;62.50;100808.81;1761018;81;21362;-56
2023/06/23 01:17:36;;;;;;;12.63;9.10;;;;;;;16.82;62.56;100802.63;1761193;81;21829;-56
2023/06/23 01:20:45;;;;;;;13.85;10.15;;;;;;;16.81;62.68;100804.52;1732997;81;21885;-56
2023/06/23 01:24:14;;;;;;;13.22;9.53;;;;;;;16.80;62.76;100807.50;1760982;81;21852;-56
2023/06/23 01:27:51;;;;;;;17.23;10.32;;;;;;;16.78;62.80;100804.07;1736496;81;21356;-56
2023/06/23 01:30:56;;;;;;;16.90;9.73;;;;;;;16.76;62.94;100804.83;1760891;81;21410;-55
2023/06/23 01:34:06;;;;;;;13.85;9.98;;;;;;;16.75;63.08;100798.95;1760384;81;21398;-56
2023/06/23 01:37:23;;;;;;;20.00;10.60;;;;;;;16.73;63.16;100797.78;1760681;81;21813;-58
2023/06/23 01:40:31;;;;;;;13.90;9.78;;;;;;;16.72;63.20;100792.46;1760850;81;21352;-55
2023/06/23 01:43:39;;;;;;;13.90;10.08;;;;;;;16.70;63.30;100794.60;1760997;81;21344;-55
2023/06/23 01:46:49;;;;;;;17.98;10.10;;;;;;;16.68;63.35;100797.54;1761065;81;21367;-57
2023/06/23 01:49:58;;;;;;;17.60;9.85;;;;;;;16.68;63.51;100799.48;1761044;81;21414;-57
2023/06/23 01:53:05;;;;;;;17.17;9.90;;;;;;;16.69;63.59;100799.27;1761013;81;21741;-56
2023/06/23 01:56:13;;;;;;;16.37;10.38;;;;;;;16.70;63.68;100798.75;1761085;81;21351;-56
2023/06/23 01:59:19;;;;;;;15.63;9.63;;;;;;;16.69;63.76;100794.25;1761049;81;21395;-56
2023/06/23 02:02:25;;;;;;;16.12;10.65;;;;;;;16.69;63.81;100797.02;1761128;81;21340;-55
2023/06/23 02:05:32;;;;;;;11.78;9.13;;;;;;;16.70;63.88;100798.20;1761067;81;21368;-56
2023/06/23 02:08:40;;;;;;;14.93;9.45;;;;;;;16.70;63.91;100792.67;1761031;81;21398;-56
2023/06/23 02:11:48;;;;;;;15.93;10.60;;;;;;;16.72;63.99;100789.70;1761002;81;21379;-57
2023/06/23 02:14:55;;;;;;;20.43;10.82;;;;;;;16.73;64.07;100792.25;1761117;81;21378;-56
2023/06/23 02:18:02;;;;;;;15.43;10.90;;;;;;;16.75;64.16;100793.43;1744963;81;21853;-56
2023/06/23 02:21:10;;;;;;;16.45;10.45;;;;;;;16.79;64.33;100794.73;1761053;81;21418;-57
2023/06/23 02:24:16;;;;;;;16.10;9.68;;;;;;;16.83;64.40;100795.50;1761116;81;21439;-56
2023/06/23 02:27:22;;;;;;;21.77;10.63;;;;;;;16.88;64.46;100791.59;1760983;81;21352;-56
2023/06/23 02:30:28;;;;;;;17.23;10.53;;;;;;;16.93;64.54;100798.74;1745179;81;21375;-56
2023/06/23 02:33:33;;;;;;;17.07;10.35;;;;;;;17.00;64.65;100792.69;1760974;81;21835;-55
2023/06/23 02:36:44;;;;;;;15.48;10.25;;;;;;;17.06;64.70;100789.08;1760950;81;21395;-55
2023/06/23 02:39:54;;;;;;;12.68;9.38;;;;;;;17.13;64.77;100790.49;1761106;81;21847;-56
2023/06/23 02:43:08;;;;;;;15.10;10.60;;;;;;;17.21;64.90;100787.02;1761104;81;21975;-56
2023/06/23 02:46:15;;;;;;;17.70;10.35;;;;;;;17.29;65.01;100783.20;1760158;81;21356;-55
2023/06/23 02:49:25;;;;;;;15.10;10.50;;;;;;;17.36;65.09;100786.29;1760619;81;21429;-55
2023/06/23 02:52:41;;;;;;;17.55;10.18;;;;;;;17.44;65.17;100788.03;1760700;81;21352;-55
2023/06/23 02:55:48;;;;;;;15.53;9.75;;;;;;;17.53;65.28;100789.04;1745375;81;21924;-55
2023/06/23 02:58:57;;;;;;;17.57;9.70;;;;;;;17.63;65.35;100786.69;1760630;81;21437;-59
2023/06/23 03:02:04;;;;;;;29.45;10.85;;;;;;;17.73;65.44;100780.20;1760646;81;21726;-57
2023/06/23 03:05:13;;;;;;;17.48;10.08;;;;;;;17.81;65.45;100787.44;1760467;81;21422;-57
2023/06/23 03:08:19;;;;;;;14.47;10.40;;;;;;;17.91;65.44;100783.73;1760615;81;21394;-57
2023/06/23 03:11:26;;;;;;;15.20;9.78;;;;;;;18.00;65.46;100784.38;1760479;81;21379;-57
2023/06/23 03:14:32;;;;;;;15.38;9.95;;;;;;;18.08;65.51;100776.67;1744082;81;21371;-57
2023/06/23 03:17:40;;;;;;;15.23;9.28;;;;;;;18.20;65.51;100777.74;1760387;81;21343;-58
2023/06/23 03:20:54;;;;;;;15.93;9.65;;;;;;;18.30;65.54;100776.74;1771797;81;21884;-57
2023/06/23 03:24:02;;;;;;;13.22;8.73;;;;;;;18.38;65.58;100762.69;1772493;81;21409;-58
2023/06/23 03:27:07;;;;;;;15.58;8.18;;;;;;;18.48;65.57;100765.87;1735739;82;21559;-58
2023/06/23 03:30:20;;;;;;;11.83;8.45;;;;;;;18.58;65.60;100769.05;1769716;81;21358;-58
2023/06/23 03:33:23;;;;;;;17.27;9.50;;;;;;;18.70;65.62;100766.42;1735658;82;21221;-58
2023/06/23 03:36:32;;;;;;;16.42;9.93;;;;;;;18.82;65.68;100768.29;1772010;81;21398;-58
2023/06/23 03:39:37;;;;;;;13.48;9.68;;;;;;;18.94;65.68;100765.16;1772548;81;21433;-59
2023/06/23 03:42:46;;;;;;;19.25;9.65;;;;;;;19.05;65.70;100757.52;1735632;81;21273;-58
2023/06/23 03:45:52;;;;;;;12.93;8.93;;;;;;;19.18;65.73;100757.98;1770690;81;21352;-57
2023/06/23 03:48:58;;;;;;;15.98;9.23;;;;;;;19.29;65.76;100760.95;1771993;81;21389;-57
2023/06/23 03:52:05;;;;;;;15.80;9.00;;;;;;;19.44;65.77;100766.72;1771806;81;21343;-57
2023/06/23 03:55:10;;;;;;;20.23;10.45;;;;;;;19.57;65.79;100758.30;1771994;81;21359;-57
2023/06/23 03:58:15;;;;;;;17.75;11.18;;;;;;;19.70;65.79;100756.26;1770298;81;21426;-57
2023/06/23 04:01:22;;;;;;;16.65;10.55;;;;;;;19.85;65.77;100760.09;1772403;79;21347;-58
2023/06/23 04:04:27;;;;;;;24.05;14.40;;;;;;;19.96;65.73;100760.75;1771620;81;21362;-58
2023/06/23 04:07:34;;;;;;;22.95;10.43;;;;;;;20.09;65.74;100761.46;1772210;81;21348;-58
2023/06/23 04:10:41;;;;;;;16.60;10.60;;;;;;;20.19;65.71;100752.10;1772288;81;21864;-58
2023/06/23 04:13:45;;;;;;;14.03;9.30;;;;;;;20.29;65.68;100757.14;1771662;81;21354;-57
2023/06/23 04:16:51;;;;;;;16.62;9.38;;;;;;;20.40;65.66;100761.94;1772676;80;21359;-59
2023/06/23 04:19:58;;;;;;;14.63;9.18;;;;;;;20.52;65.65;100765.64;1772523;81;21398;-57
2023/06/23 04:23:03;;;;;;;16.23;9.13;;;;;;;20.64;65.60;100761.86;1772434;81;21465;-58
2023/06/23 04:26:08;;;;;;;17.10;8.88;;;;;;;20.75;65.49;100757.47;1770606;81;21441;-58
2023/06/23 04:29:15;;;;;;;10.95;8.05;;;;;;;20.82;65.37;100750.43;1772476;81;21402;-58
2023/06/23 04:32:23;;;;;;;13.93;8.80;;;;;;;20.88;65.34;100750.88;1772609;81;21200;-57
2023/06/23 04:35:30;;;;;;;24.55;14.70;;;;;;;20.98;65.34;100752.05;1756493;80;21350;-58
2023/06/23 04:38:35;;;;;;;15.48;8.88;;;;;;;21.12;65.33;100749.95;1768950;79;21414;-59
2023/06/23 04:41:41;;;;;;;10.78;8.23;;;;;;;21.25;65.24;100751.16;1762179;81;21429;-59
2023/06/23 04:44:58;;;;;;;13.72;8.23;;;;;;;21.39;65.16;100751.27;1722061;81;21414;-59
2023/06/23 04:48:08;;;;;;;14.07;7.97;;;;;;;21.50;65.11;100744.89;1773936;79;21366;-59
2023/06/23 04:51:17;;;;;;;16.65;9.40;;;;;;;21.63;65.10;100733.50;1797858;79;21351;-59
2023/06/23 04:54:34;;;;;;;10.20;7.30;;;;;;;21.75;65.06;100739.47;1794417;79;21721;-57
2023/06/23 04:57:40;;;;;;;18.50;10.95;;;;;;;21.85;65.03;100736.91;1791799;79;21382;-60
2023/06/23 05:00:39;;;;;;;13.25;8.53;;;;;;;21.93;64.92;100746.86;1797922;79;21355;-60
2023/06/23 05:03:47;;;;;;;13.00;8.75;;;;;;;21.99;64.89;100750.09;1774535;79;21205;-59
2023/06/23 05:06:53;;;;;;;12.00;8.35;;;;;;;22.05;64.94;100750.52;1778473;79;21212;-60
2023/06/23 05:09:58;;;;;;;17.80;9.68;;;;;;;22.12;64.88;100756.81;1789000;79;21212;-60
2023/06/23 05:13:04;;;;;;;11.88;8.93;;;;;;;22.18;64.83;100753.91;1797261;79;21362;-59
2023/06/23 05:16:12;;;;;;;12.93;7.60;;;;;;;22.27;64.85;100755.80;1785279;79;21508;-60
2023/06/23 05:19:18;;;;;;;13.35;8.23;;;;;;;22.39;64.80;100756.63;1791244;79;21873;-62
2023/06/23 05:22:27;;;;;;;10.95;8.08;;;;;;;22.44;64.65;100753.96;1796052;79;21402;-61
2023/06/23 05:25:34;;;;;;;13.68;8.48;;;;;;;22.50;64.53;100746.56;1789024;79;21371;-60
2023/06/23 05:28:42;;;;;;;10.78;7.87;;;;;;;22.59;64.48;100747.91;1788290;79;21402;-60
2023/06/23 05:31:49;;;;;;;12.68;8.33;;;;;;;22.68;64.41;100747.29;1796401;79;21347;-60
2023/06/23 05:34:56;;;;;;;12.35;7.87;;;;;;;22.75;64.32;100744.37;1789732;79;21409;-60
2023/06/23 05:38:02;;;;;;;11.05;8.00;;;;;;;22.84;64.31;100749.32;1792653;79;21342;-60
2023/06/23 05:41:07;;;;;;;15.13;7.85;;;;;;;22.93;64.23;100744.20;1798169;79;21386;-60
2023/06/23 05:44:14;;;;;;;14.60;7.83;;;;;;;23.02;64.17;100741.31;1761880;79;22067;-61
2023/06/23 05:47:26;;;;;;;15.40;7.97;;;;;;;23.13;64.19;100740.42;1771646;81;21397;-61
2023/06/23 05:50:40;;;;;;;10.68;8.13;;;;;;;23.28;64.16;100739.34;1771831;79;21407;-61
2023/06/23 05:53:48;;;;;;;13.25;8.78;;;;;;;23.44;64.12;100741.33;1772420;79;21350;-61
2023/06/23 05:57:05;;;;;;;11.00;8.15;;;;;;;23.54;63.95;100745.72;1771407;79;21354;-60
2023/06/23 06:00:15;;;;;;;10.53;8.08;;;;;;;23.63;63.82;100739.19;1776429;79;21189;-59
2023/06/23 06:03:23;;;;;;;13.90;8.35;;;;;;;23.66;63.64;100732.51;1784892;79;21346;-60
2023/06/23 06:06:28;;;;;;;14.68;8.33;;;;;;;23.74;63.57;100739.09;1793821;79;21453;-61
2023/06/23 06:09:37;;;;;;;14.03;8.80;;;;;;;23.81;63.51;100743.98;1784258;79;21464;-62
2023/06/23 06:12:45;;;;;;;12.82;9.43;;;;;;;23.89;63.48;100739.36;1801601;79;21478;-62
2023/06/23 06:15:58;;;;;;;10.10;8.50;;;;;;;23.99;63.38;100738.72;1783644;79;21343;-60
2023/06/23 06:19:04;;;;;;;15.43;8.43;;;;;;;24.07;63.26;100729.90;1788377;79;21382;-60
2023/06/23 06:22:11;;;;;;;12.35;8.78;;;;;;;24.13;63.18;100726.07;1772412;79;21410;-62
2023/06/23 06:25:18;;;;;;;28.07;18.12;;;;;;;24.19;63.08;100727.30;1770763;79;21281;-62
2023/06/23 06:28:24;;;;;;;21.55;14.65;;;;;;;24.26;63.02;100720.12;1787559;79;21338;-61
2023/06/23 06:31:29;;;;;;;11.15;8.25;;;;;;;24.35;63.02;100711.03;1798504;79;21358;-62
2023/06/23 06:34:40;;;;;;;10.55;8.55;;;;;;;24.46;62.97;100704.47;1767714;79;22071;-61
2023/06/23 06:37:50;;;;;;;9.58;8.28;;;;;;;24.53;62.85;100700.91;1771516;80;21335;-59
2023/06/23 06:40:56;;;;;;;14.80;8.88;;;;;;;24.61;62.76;100694.04;1789273;79;21367;-62
2023/06/23 06:44:03;;;;;;;12.30;8.38;;;;;;;24.69;62.72;100692.19;1796103;79;21371;-63
2023/06/23 06:47:11;;;;;;;22.67;14.75;;;;;;;24.80;62.73;100692.06;1788840;79;21366;-61
2023/06/23 06:50:23;;;;;;;11.03;8.70;;;;;;;24.93;62.65;100697.27;1776843;77;21334;-58
2023/06/23 06:53:30;;;;;;;11.93;9.08;;;;;;;25.05;62.57;100683.95;1760023;81;21263;-62
2023/06/23 06:56:36;;;;;;;9.50;8.20;;;;;;;25.17;62.40;100672.59;1754785;80;21355;-57
2023/06/23 06:59:44;;;;;;;12.55;9.05;;;;;;;25.29;62.28;100675.25;1756216;80;21675;-60
2023/06/23 07:02:50;;;;;;;13.05;8.95;;;;;;;25.37;62.16;100667.22;1752115;81;21211;-63
2023/06/23 07:05:56;;;;;;;13.40;9.00;;;;;;;25.48;62.10;100670.98;1749299;80;21231;-61
2023/06/23 07:09:03;;;;;;;11.40;8.55;;;;;;;25.60;62.00;100677.25;1752201;79;21181;-64
2023/06/23 07:12:08;;;;;;;11.10;7.97;;;;;;;25.71;61.95;100679.88;1747103;80;21203;-61
2023/06/23 07:15:14;;;;;;;12.82;8.10;;;;;;;25.79;61.79;100677.13;1748454;81;21448;-60
2023/06/23 07:18:19;;;;;;;11.03;8.90;;;;;;;25.86;61.66;100676.36;1762708;80;21200;-59
2023/06/23 07:21:24;;;;;;;13.60;8.08;;;;;;;25.95;61.54;100675.59;1748979;80;21401;-58
2023/06/23 07:24:30;;;;;;;10.90;8.35;;;;;;;26.03;61.47;100681.28;1751175;80;21645;-62
2023/06/23 07:27:38;;;;;;;11.60;8.03;;;;;;;26.08;61.34;100676.58;1760742;81;21252;-60
2023/06/23 07:30:43;;;;;;;9.65;8.20;;;;;;;26.15;61.21;100674.91;1757804;81;21196;-60
2023/06/23 07:33:49;;;;;;;13.45;8.38;;;;;;;26.23;61.08;100681.41;1762695;81;21209;-60
2023/06/23 07:36:54;;;;;;;11.97;8.48;;;;;;;26.33;61.01;100681.48;1758856;80;22000;-60
2023/06/23 07:40:02;;;;;;;10.00;8.53;;;;;;;26.41;60.84;100671.15;1764448;80;21215;-61
2023/06/23 07:43:08;;;;;;;10.00;8.10;;;;;;;26.48;60.75;100667.55;1764541;81;21347;-59
2023/06/23 07:46:14;;;;;;;12.50;9.33;;;;;;;26.57;60.65;100658.88;1764428;81;21219;-61
2023/06/23 07:49:21;;;;;;;11.10;8.13;;;;;;;26.64;60.47;100651.60;1764867;81;21262;-61
2023/06/23 07:52:26;;;;;;;11.35;8.50;;;;;;;26.71;60.35;100650.26;1765589;79;21504;-60
2023/06/23 07:55:34;;;;;;;16.85;10.55;;;;;;;26.79;60.20;100645.52;1786715;79;21330;-63
2023/06/23 07:58:39;;;;;;;12.13;9.40;;;;;;;26.87;60.05;100646.93;1786895;79;21917;-63
2023/06/23 08:01:44;;;;;;;12.03;8.50;;;;;;;26.91;59.84;100636.27;1777176;79;21723;-63
2023/06/23 08:04:50;;;;;;;11.65;8.48;;;;;;;26.98;59.74;100636.00;1790912;79;21379;-59
2023/06/23 08:07:58;;;;;;;9.00;7.80;;;;;;;27.04;59.60;100623.64;1794071;79;21884;-60
2023/06/23 08:11:04;;;;;;;11.18;8.58;;;;;;;27.14;59.52;100631.55;1798491;79;21841;-61
2023/06/23 08:14:12;;;;;;;9.65;8.05;;;;;;;27.26;59.40;100629.87;1788924;79;21927;-62
2023/06/23 08:17:19;;;;;;;11.97;7.97;;;;;;;27.33;59.23;100626.27;1772628;79;22063;-59
2023/06/23 08:20:26;;;;;;;10.95;7.67;;;;;;;27.42;59.05;100631.05;1770901;79;21346;-59
2023/06/23 08:23:32;;;;;;;10.80;8.00;;;;;;;27.48;58.84;100622.89;1772406;79;21363;-62
2023/06/23 08:26:39;;;;;;;9.55;8.00;;;;;;;27.57;58.73;100618.97;1770197;80;21239;-60
2023/06/23 08:29:45;;;;;;;9.53;7.05;;;;;;;27.69;58.65;100616.70;1774647;79;21331;-57
2023/06/23 08:32:51;;;;;;;9.05;6.70;;;;;;;27.81;58.49;100608.24;1778815;79;21721;-60
2023/06/23 08:35:58;;;;;;;10.43;8.68;;;;;;;27.90;58.28;100605.73;1782773;79;21338;-60
2023/06/23 08:39:03;;;;;;;13.75;7.90;;;;;;;28.00;58.08;100612.77;1798732;79;21369;-59
2023/06/23 08:42:09;;;;;;;9.15;7.80;;;;;;;28.11;57.91;100610.77;1789156;79;21409;-63
2023/06/23 08:45:16;;;;;;;10.78;7.33;;;;;;;28.23;57.81;100605.09;1778744;79;21339;-61
2023/06/23 08:48:23;;;;;;;8.13;7.25;;;;;;;28.43;57.61;100602.78;1791385;79;21765;-62
2023/06/23 08:51:29;;;;;;;9.13;7.53;;;;;;;28.62;57.35;100601.86;1788486;79;21243;-61
2023/06/23 08:54:35;;;;;;;10.75;7.37;;;;;;;28.79;57.01;100604.33;1774387;80;21243;-60
2023/06/23 08:57:40;;;;;;;11.05;6.58;;;;;;;28.90;56.75;100605.95;1782572;80;21196;-59
2023/06/23 09:00:47;;;;;;;11.43;7.00;;;;;;;28.94;56.40;100602.25;1780297;79;21204;-59
2023/06/23 09:03:54;;;;;;;10.03;6.65;;;;;;;28.94;56.10;100600.84;1780013;79;21791;-58
2023/06/23 09:06:58;;;;;;;7.00;6.28;;;;;;;28.94;55.80;100595.76;1776754;80;21182;-58
2023/06/23 09:10:06;;;;;;;8.10;6.83;;;;;;;28.98;55.56;100595.47;1772496;79;21554;-58
2023/06/23 09:13:30;;;;;;;10.58;7.12;;;;;;;29.05;55.41;100591.77;1777440;79;21543;-58
2023/06/23 09:16:36;;;;;;;9.90;6.37;;;;;;;29.15;55.21;100600.17;1782440;79;21741;-58
2023/06/23 09:19:42;;;;;;;7.15;6.42;;;;;;;29.32;55.04;100596.37;1791254;80;21212;-59
2023/06/23 09:22:49;;;;;;;8.50;6.40;;;;;;;29.46;54.73;100593.18;1773221;79;21757;-58
2023/06/23 09:26:03;;;;;;;12.47;8.05;;;;;;;29.68;53.88;100580.02;1767911;80;21232;-58
2023/06/23 09:29:28;;;;;;;;;;;;;;;29.68;53.88;100580.02;1771850;79;21251;-57
2023/06/23 09:32:37;;;;;;;10.68;6.55;;;;;;;29.75;53.81;100584.77;1786128;80;20201;-59
2023/06/23 09:35:42;;;;;;;7.42;6.28;;;;;;;29.80;53.32;100568.61;1791393;79;21746;-59
2023/06/23 09:38:48;;;;;;;7.42;6.05;;;;;;;29.92;53.21;100562.56;1766058;79;21388;-59
2023/06/23 09:42:02;;;;;;;8.75;6.00;;;;;;;29.92;53.21;100562.56;1785344;79;21168;-59
2023/06/23 09:45:08;;;;;;;7.62;5.78;;;;;;;29.95;52.42;100559.14;1776754;79;21695;-57
2023/06/23 09:48:25;;;;;;;11.43;6.47;;;;;;;29.95;52.42;100559.14;1772036;80;21314;-59
2023/06/23 09:51:32;;;;;;;10.90;6.33;;;;;;;30.00;52.17;100568.38;1770582;80;21729;-60
2023/06/23 09:54:45;;;;;;;11.05;6.60;;;;;;;29.98;51.78;100551.48;1776815;79;21205;-59
2023/06/23 09:57:51;;;;;;;10.30;6.33;;;;;;;30.00;51.59;100548.61;1783133;79;21178;-59
2023/06/23 10:00:56;;;;;;;8.50;6.30;;;;;;;30.10;51.31;100548.50;1781621;79;21185;-60
2023/06/23 10:04:01;;;;;;;9.58;6.50;;;;;;;30.21;50.79;100536.53;1749142;79;21831;-60
2023/06/23 10:07:07;;;;;;;10.18;6.17;;;;;;;30.21;50.79;100536.53;1793488;79;21738;-58
2023/06/23 10:10:13;;;;;;;7.62;6.25;;;;;;;30.38;50.65;100540.55;1787833;79;21165;-56
2023/06/23 10:13:20;;;;;;;12.65;6.30;;;;;;;30.52;50.33;100533.59;1749704;81;21257;-54
2023/06/23 10:16:25;;;;;;;7.92;6.10;;;;;;;30.67;50.08;100539.02;1759089;81;21243;-55
2023/06/23 10:19:30;;;;;;;8.68;6.97;;;;;;;30.78;49.74;100542.00;1785594;79;22006;-56
2023/06/23 10:22:36;;;;;;;7.60;6.30;;;;;;;30.92;49.52;100530.78;1787400;79;21335;-57
2023/06/23 10:25:42;;;;;;;9.60;7.22;;;;;;;31.13;49.28;100518.83;1785107;79;21228;-56
2023/06/23 10:28:48;;;;;;;8.38;6.70;;;;;;;31.32;48.90;100524.48;1764355;79;21764;-57
2023/06/23 10:31:56;;;;;;;9.45;6.28;;;;;;;31.55;48.61;100520.69;1788290;79;21350;-56
2023/06/23 10:35:08;;;;;;;8.18;6.40;;;;;;;31.71;48.21;100527.15;1786397;79;21912;-58
2023/06/23 10:38:14;;;;;;;7.78;6.83;;;;;;;31.70;47.52;100524.63;1789822;79;21841;-55
2023/06/23 10:41:21;;;;;;;10.72;7.47;;;;;;;31.57;47.07;100517.80;1792935;79;21865;-56
2023/06/23 10:44:26;;;;;;;14.33;7.55;;;;;;;31.42;46.75;100522.33;1788300;79;21593;-54
2023/06/23 10:47:34;;;;;;;8.85;7.33;;;;;;;31.29;46.50;100512.33;1782498;79;21358;-55
2023/06/23 10:50:41;;;;;;;7.15;6.40;;;;;;;31.20;46.24;100514.19;1802685;79;21398;-55
2023/06/23 10:54:07;;;;;;;7.00;6.30;;;;;;;31.15;46.00;100514.27;1787424;79;21387;-55
2023/06/23 10:57:18;;;;;;;7.42;6.30;;;;;;;31.18;45.82;100503.75;1781136;79;21387;-56
2023/06/23 11:00:24;;;;;;;7.03;6.17;;;;;;;31.25;45.58;100503.64;1792840;79;21374;-58
2023/06/23 11:03:38;;;;;;;13.18;6.42;;;;;;;31.25;45.34;100495.72;1772777;79;21212;-53
2023/06/23 11:06:46;;;;;;;8.23;5.92;;;;;;;31.37;45.26;100496.09;1792663;79;21405;-58
2023/06/23 11:10:07;;;;;;;7.67;6.33;;;;;;;31.54;45.03;100494.95;1772289;79;21488;-59
2023/06/23 11:13:18;;;;;;;7.12;6.40;;;;;;;31.58;44.74;100494.58;1790004;79;21686;-56
2023/06/23 11:16:40;;;;;;;9.95;6.97;;;;;;;31.59;44.45;100493.41;1780480;79;21342;-58
2023/06/23 11:19:45;;;;;;;9.65;6.70;;;;;;;31.60;44.21;100497.95;1802055;79;21377;-57
2023/06/23 11:23:14;;;;;;;8.25;6.78;;;;;;;31.64;44.02;100491.91;1753130;79;21867;-59
2023/06/23 11:26:34;;;;;;;9.20;6.35;;;;;;;31.63;43.77;100491.66;1749804;81;21252;-59
2023/06/23 11:29:40;;;;;;;7.87;6.85;;;;;;;31.79;43.75;100483.13;1704035;82;21627;-58
2023/06/23 11:32:47;;;;;;;7.50;6.50;;;;;;;31.94;43.55;100481.43;1787758;79;21361;-59
2023/06/23 11:35:53;;;;;;;9.25;6.35;;;;;;;32.07;43.26;100483.99;1788500;79;21430;-58
2023/06/23 11:39:00;;;;;;;8.93;6.00;;;;;;;32.13;43.00;100480.74;1779839;79;21807;-56
2023/06/23 11:42:07;;;;;;;9.25;6.05;;;;;;;32.22;42.75;100476.03;1771693;81;21362;-57
2023/06/23 11:45:15;;;;;;;8.53;6.50;;;;;;;32.34;42.52;100473.48;1771783;81;21684;-58
2023/06/23 11:48:20;;;;;;;7.72;6.55;;;;;;;32.49;42.38;100477.41;1751242;80;21197;-56
2023/06/23 11:51:26;;;;;;;7.80;6.22;;;;;;;32.61;42.11;100482.53;1790731;79;21466;-57
2023/06/23 11:54:32;;;;;;;7.90;6.35;;;;;;;32.62;41.75;100474.31;1789579;79;21255;-59
2023/06/23 11:57:39;;;;;;;12.25;6.37;;;;;;;32.65;41.53;100468.81;1784911;79;21205;-59
2023/06/23 12:00:44;;;;;;;7.53;5.92;;;;;;;32.70;41.35;100467.28;1760607;79;21232;-57
2023/06/23 12:03:56;;;;;;;7.47;6.40;;;;;;;32.76;41.13;100462.34;1792624;79;21343;-57
2023/06/23 12:07:04;;;;;;;6.58;5.87;;;;;;;32.79;40.84;100473.86;1777823;79;21346;-56
2023/06/23 12:10:12;;;;;;;9.93;6.70;;;;;;;32.75;40.47;100462.91;1778649;79;21192;-59
2023/06/23 12:13:22;;;;;;;8.43;6.08;;;;;;;32.75;40.31;100455.81;1790491;79;21343;-58
2023/06/23 12:16:27;;;;;;;9.05;6.65;;;;;;;32.72;40.07;100450.79;1789461;79;21433;-58
2023/06/23 12:19:32;;;;;;;6.62;5.60;;;;;;;32.69;39.83;100452.00;1793547;79;21358;-58
2023/06/23 12:22:48;;;;;;;8.53;6.40;;;;;;;32.70;39.72;100442.33;1786132;79;21193;-58
2023/06/23 12:25:55;;;;;;;8.60;6.12;;;;;;;32.60;39.50;100440.58;1773473;80;21207;-60
2023/06/23 12:29:15;;;;;;;6.95;5.97;;;;;;;32.56;39.46;100444.37;1771408;80;21240;-59
2023/06/23 12:32:21;;;;;;;7.40;5.85;;;;;;;32.62;39.44;100441.70;1783481;79;21377;-56
2023/06/23 12:35:27;;;;;;;7.80;6.42;;;;;;;32.65;39.37;100438.22;1767435;79;21375;-59
2023/06/23 12:38:33;;;;;;;9.15;6.03;;;;;;;32.66;39.31;100435.63;1793534;79;21373;-58
2023/06/23 12:41:40;;;;;;;7.97;6.30;;;;;;;32.60;39.21;100432.06;1793747;79;21227;-58
2023/06/23 12:44:48;;;;;;;8.85;6.17;;;;;;;32.55;39.15;100427.96;1739703;80;21695;-57
2023/06/23 12:47:55;;;;;;;7.80;6.10;;;;;;;32.45;39.03;100428.76;1778330;80;21212;-58
2023/06/23 12:51:01;;;;;;;7.17;6.20;;;;;;;32.36;38.94;100429.23;1780253;79;21232;-58
2023/06/23 12:54:07;;;;;;;9.95;6.20;;;;;;;32.25;38.89;100415.89;1774077;79;21227;-58
2023/06/23 12:57:16;;;;;;;9.18;6.22;;;;;;;32.24;38.93;100412.77;1799224;79;21361;-57
2023/06/23 13:00:28;;;;;;;8.53;6.57;;;;;;;32.29;38.88;100405.58;1790801;79;21389;-58
2023/06/23 13:03:35;;;;;;;7.12;6.33;;;;;;;32.31;38.86;100393.34;1775120;79;21789;-61
2023/06/23 13:06:45;;;;;;;9.20;6.12;;;;;;;32.36;38.89;100398.91;1769086;81;21688;-61
2023/06/23 13:09:49;;;;;;;7.28;5.85;;;;;;;32.30;38.79;100389.41;1774116;79;21165;-59
2023/06/23 13:12:56;;;;;;;7.00;6.10;;;;;;;32.25;38.79;100396.05;1789462;79;21327;-60
2023/06/23 13:16:02;;;;;;;8.00;6.58;;;;;;;32.25;38.79;100382.45;1789414;79;21721;-61
2023/06/23 13:19:08;;;;;;;8.80;6.33;;;;;;;32.28;38.80;100381.23;1802860;79;21362;-62
2023/06/23 13:22:14;;;;;;;8.65;6.35;;;;;;;32.27;38.78;100369.63;1784104;79;21393;-64
2023/06/23 13:25:20;;;;;;;7.65;5.97;;;;;;;32.31;38.81;100366.42;1770741;81;21417;-61
2023/06/23 13:28:25;;;;;;;11.63;6.17;;;;;;;32.34;38.74;100364.36;1754970;81;21201;-59
2023/06/23 13:31:32;;;;;;;7.50;6.70;;;;;;;32.23;38.61;100353.02;1771526;80;22102;-62
2023/06/23 13:34:38;;;;;;;8.60;6.67;;;;;;;32.19;38.60;100359.04;1775662;79;21939;-61
2023/06/23 13:37:44;;;;;;;7.80;6.40;;;;;;;32.12;38.59;100355.83;1791243;79;21342;-62
2023/06/23 13:40:50;;;;;;;7.87;5.87;;;;;;;32.07;38.62;100347.44;1791212;79;21357;-62
2023/06/23 13:43:55;;;;;;;9.08;5.95;;;;;;;32.07;38.56;100353.11;1770942;80;21995;-60
2023/06/23 13:47:01;;;;;;;8.88;6.60;;;;;;;32.09;38.60;100347.97;1770873;81;21704;-60
2023/06/23 13:50:16;;;;;;;9.05;6.70;;;;;;;32.09;38.51;100343.72;1769981;81;21852;-59
2023/06/23 13:53:15;;;;;;;7.90;6.22;;;;;;;32.13;38.50;100342.50;1769482;81;21200;-60
2023/06/23 13:56:22;;;;;;;7.92;5.78;;;;;;;32.19;38.48;100346.28;1769789;80;21189;-60
2023/06/23 13:59:28;;;;;;;7.25;6.40;;;;;;;32.22;38.42;100342.00;1786135;79;21711;-60
2023/06/23 14:02:33;;;;;;;9.08;6.55;;;;;;;32.20;38.36;100343.73;1803805;79;21860;-60
2023/06/23 14:05:39;;;;;;;7.67;6.53;;;;;;;32.21;38.27;100341.14;1804046;79;21350;-61
2023/06/23 14:08:47;;;;;;;6.65;5.95;;;;;;;32.25;38.16;100347.88;1803763;79;21386;-61
2023/06/23 14:11:55;;;;;;;7.20;6.47;;;;;;;32.25;38.12;100347.88;1803874;79;21402;-62
2023/06/23 14:15:02;;;;;;;7.53;6.20;;;;;;;32.23;38.01;100342.24;1803891;79;21401;-60
2023/06/23 14:18:08;;;;;;;7.62;6.87;;;;;;;32.20;37.98;100349.41;1803916;79;21402;-62
2023/06/23 14:21:16;;;;;;;8.75;6.45;;;;;;;32.24;38.00;100351.84;1794472;79;21342;-62
2023/06/23 14:24:21;;;;;;;8.25;7.05;;;;;;;32.31;37.96;100347.16;1790697;79;21341;-60
2023/06/23 14:27:28;;;;;;;8.25;6.78;;;;;;;32.33;37.83;100351.93;1798747;79;21328;-61